sensor_id;sensor_type;location;lat;lon;timestamp;P1;durP1;ratioP1;P2;durP2;ratioP2
48951;SDS011;34758;42.148;24.744;2024-03-22T00:02:06;13.13;;;8.93;;
48951;SDS011;34758;42.148;24.744;2024-03-22T00:04:32;11.82;;;7.97;;
48951;SDS011;34758;42.148;24.744;2024-03-22T00:06:59;12.02;;;8.10;;
48951;SDS011;34758;42.148;24.744;2024-03-22T00:09:26;11.23;;;7.95;;
48951;SDS011;34758;42.148;24.744;2024-03-22T00:11:55;15.05;;;8.02;;
48951;SDS011;34758;42.148;24.744;2024-03-22T00:14:21;12.20;;;8.13;;
48951;SDS011;34758;42.148;24.744;2024-03-22T00:16:48;12.50;;;7.63;;
48951;SDS011;34758;42.148;24.744;2024-03-22T00:19:15;17.98;;;8.00;;
48951;SDS011;34758;42.148;24.744;2024-03-22T00:21:42;10.57;;;7.53;;
48951;SDS011;34758;42.148;24.744;2024-03-22T00:24:08;11.45;;;7.90;;
48951;SDS011;34758;42.148;24.744;2024-03-22T00:26:35;15.02;;;7.80;;
48951;SDS011;34758;42.148;24.744;2024-03-22T00:29:02;15.70;;;9.18;;
48951;SDS011;34758;42.148;24.744;2024-03-22T00:31:29;11.50;;;8.82;;
48951;SDS011;34758;42.148;24.744;2024-03-22T00:33:55;12.75;;;7.78;;
48951;SDS011;34758;42.148;24.744;2024-03-22T00:36:22;10.77;;;7.38;;
48951;SDS011;34758;42.148;24.744;2024-03-22T00:38:47;9.52;;;7.70;;
48951;SDS011;34758;42.148;24.744;2024-03-22T00:41:14;11.35;;;7.40;;
48951;SDS011;34758;42.148;24.744;2024-03-22T00:43:40;9.43;;;6.40;;
48951;SDS011;34758;42.148;24.744;2024-03-22T00:46:09;13.23;;;8.00;;
48951;SDS011;34758;42.148;24.744;2024-03-22T00:48:35;10.32;;;7.72;;
48951;SDS011;34758;42.148;24.744;2024-03-22T00:51:02;11.07;;;7.72;;
48951;SDS011;34758;42.148;24.744;2024-03-22T00:53:28;13.93;;;8.27;;
48951;SDS011;34758;42.148;24.744;2024-03-22T00:55:55;10.05;;;7.22;;
48951;SDS011;34758;42.148;24.744;2024-03-22T00:58:24;12.52;;;8.38;;
48951;SDS011;34758;42.148;24.744;2024-03-22T01:00:51;11.13;;;8.75;;
48951;SDS011;34758;42.148;24.744;2024-03-22T01:03:18;10.45;;;8.00;;
48951;SDS011;34758;42.148;24.744;2024-03-22T01:05:45;12.45;;;7.97;;
48951;SDS011;34758;42.148;24.744;2024-03-22T01:08:11;12.27;;;8.55;;
48951;SDS011;34758;42.148;24.744;2024-03-22T01:10:38;13.02;;;8.80;;
48951;SDS011;34758;42.148;24.744;2024-03-22T01:13:05;14.48;;;9.73;;
48951;SDS011;34758;42.148;24.744;2024-03-22T01:15:32;12.70;;;8.85;;
48951;SDS011;34758;42.148;24.744;2024-03-22T01:17:58;14.48;;;9.20;;
48951;SDS011;34758;42.148;24.744;2024-03-22T01:20:26;13.82;;;9.10;;
48951;SDS011;34758;42.148;24.744;2024-03-22T01:22:52;15.85;;;9.70;;
48951;SDS011;34758;42.148;24.744;2024-03-22T01:25:19;17.05;;;10.15;;
48951;SDS011;34758;42.148;24.744;2024-03-22T01:27:45;12.30;;;9.05;;
48951;SDS011;34758;42.148;24.744;2024-03-22T01:30:12;14.15;;;9.63;;
48951;SDS011;34758;42.148;24.744;2024-03-22T01:32:38;16.13;;;11.40;;
48951;SDS011;34758;42.148;24.744;2024-03-22T01:35:07;16.42;;;11.52;;
48951;SDS011;34758;42.148;24.744;2024-03-22T01:37:36;14.80;;;12.00;;
48951;SDS011;34758;42.148;24.744;2024-03-22T01:40:03;16.15;;;10.88;;
48951;SDS011;34758;42.148;24.744;2024-03-22T01:42:30;21.00;;;12.35;;
48951;SDS011;34758;42.148;24.744;2024-03-22T01:44:57;14.57;;;11.80;;
48951;SDS011;34758;42.148;24.744;2024-03-22T01:47:23;18.85;;;13.73;;
48951;SDS011;34758;42.148;24.744;2024-03-22T01:49:50;18.33;;;13.45;;
48951;SDS011;34758;42.148;24.744;2024-03-22T01:52:16;18.83;;;11.73;;
48951;SDS011;34758;42.148;24.744;2024-03-22T01:54:45;14.18;;;11.65;;
48951;SDS011;34758;42.148;24.744;2024-03-22T01:57:11;16.88;;;11.38;;
48951;SDS011;34758;42.148;24.744;2024-03-22T01:59:38;12.98;;;9.77;;
48951;SDS011;34758;42.148;24.744;2024-03-22T02:02:05;16.08;;;11.05;;
48951;SDS011;34758;42.148;24.744;2024-03-22T02:04:32;13.52;;;10.70;;
48951;SDS011;34758;42.148;24.744;2024-03-22T02:06:58;14.02;;;11.07;;
48951;SDS011;34758;42.148;24.744;2024-03-22T02:09:25;12.27;;;9.95;;
48951;SDS011;34758;42.148;24.744;2024-03-22T02:11:52;15.07;;;10.85;;
48951;SDS011;34758;42.148;24.744;2024-03-22T02:14:19;15.70;;;11.50;;
48951;SDS011;34758;42.148;24.744;2024-03-22T02:16:45;17.65;;;11.70;;
48951;SDS011;34758;42.148;24.744;2024-03-22T02:19:12;18.23;;;12.48;;
48951;SDS011;34758;42.148;24.744;2024-03-22T02:21:38;16.40;;;11.38;;
48951;SDS011;34758;42.148;24.744;2024-03-22T02:24:07;16.33;;;11.65;;
48951;SDS011;34758;42.148;24.744;2024-03-22T02:26:33;16.25;;;12.50;;
48951;SDS011;34758;42.148;24.744;2024-03-22T02:29:00;17.20;;;12.50;;
48951;SDS011;34758;42.148;24.744;2024-03-22T02:31:28;18.15;;;13.10;;
48951;SDS011;34758;42.148;24.744;2024-03-22T02:33:55;21.73;;;14.02;;
48951;SDS011;34758;42.148;24.744;2024-03-22T02:36:20;20.50;;;13.75;;
48951;SDS011;34758;42.148;24.744;2024-03-22T02:38:47;18.95;;;12.30;;
48951;SDS011;34758;42.148;24.744;2024-03-22T02:41:14;14.00;;;11.88;;
48951;SDS011;34758;42.148;24.744;2024-03-22T02:43:41;16.58;;;11.98;;
48951;SDS011;34758;42.148;24.744;2024-03-22T02:46:07;17.95;;;11.52;;
48951;SDS011;34758;42.148;24.744;2024-03-22T02:48:34;15.88;;;11.55;;
48951;SDS011;34758;42.148;24.744;2024-03-22T02:51:00;15.20;;;11.75;;
48951;SDS011;34758;42.148;24.744;2024-03-22T02:53:27;14.43;;;11.40;;
48951;SDS011;34758;42.148;24.744;2024-03-22T02:55:53;14.40;;;10.35;;
48951;SDS011;34758;42.148;24.744;2024-03-22T02:58:22;13.38;;;10.27;;
48951;SDS011;34758;42.148;24.744;2024-03-22T03:00:48;16.25;;;10.85;;
48951;SDS011;34758;42.148;24.744;2024-03-22T03:03:15;15.32;;;10.48;;
48951;SDS011;34758;42.148;24.744;2024-03-22T03:05:41;14.32;;;11.25;;
48951;SDS011;34758;42.148;24.744;2024-03-22T03:08:09;15.43;;;10.65;;
48951;SDS011;34758;42.148;24.744;2024-03-22T03:10:35;16.17;;;11.45;;
48951;SDS011;34758;42.148;24.744;2024-03-22T03:13:03;14.82;;;11.20;;
48951;SDS011;34758;42.148;24.744;2024-03-22T03:15:30;14.25;;;11.23;;
48951;SDS011;34758;42.148;24.744;2024-03-22T03:17:57;16.65;;;11.73;;
48951;SDS011;34758;42.148;24.744;2024-03-22T03:20:23;17.13;;;11.23;;
48951;SDS011;34758;42.148;24.744;2024-03-22T03:22:50;17.92;;;11.70;;
48951;SDS011;34758;42.148;24.744;2024-03-22T03:25:18;18.75;;;12.38;;
48951;SDS011;34758;42.148;24.744;2024-03-22T03:27:44;18.13;;;11.68;;
48951;SDS011;34758;42.148;24.744;2024-03-22T03:30:11;16.85;;;12.27;;
48951;SDS011;34758;42.148;24.744;2024-03-22T03:32:39;17.42;;;11.55;;
48951;SDS011;34758;42.148;24.744;2024-03-22T03:35:06;15.55;;;11.85;;
48951;SDS011;34758;42.148;24.744;2024-03-22T03:37:35;19.20;;;12.90;;
48951;SDS011;34758;42.148;24.744;2024-03-22T03:40:02;21.58;;;13.02;;
48951;SDS011;34758;42.148;24.744;2024-03-22T03:42:29;21.55;;;14.35;;
48951;SDS011;34758;42.148;24.744;2024-03-22T03:44:58;22.23;;;14.43;;
48951;SDS011;34758;42.148;24.744;2024-03-22T03:47:24;27.48;;;17.15;;
48951;SDS011;34758;42.148;24.744;2024-03-22T03:49:53;25.92;;;18.15;;
48951;SDS011;34758;42.148;24.744;2024-03-22T03:52:19;23.17;;;16.15;;
48951;SDS011;34758;42.148;24.744;2024-03-22T03:54:46;20.92;;;14.88;;
48951;SDS011;34758;42.148;24.744;2024-03-22T03:57:12;19.85;;;14.27;;
48951;SDS011;34758;42.148;24.744;2024-03-22T03:59:39;18.88;;;13.05;;
48951;SDS011;34758;42.148;24.744;2024-03-22T04:02:05;17.92;;;12.25;;
48951;SDS011;34758;42.148;24.744;2024-03-22T04:04:32;15.10;;;11.85;;
48951;SDS011;34758;42.148;24.744;2024-03-22T04:06:59;17.75;;;11.52;;
48951;SDS011;34758;42.148;24.744;2024-03-22T04:09:26;17.20;;;12.25;;
48951;SDS011;34758;42.148;24.744;2024-03-22T04:11:52;16.40;;;12.68;;
48951;SDS011;34758;42.148;24.744;2024-03-22T04:14:20;17.25;;;11.85;;
48951;SDS011;34758;42.148;24.744;2024-03-22T04:16:45;18.98;;;12.35;;
48951;SDS011;34758;42.148;24.744;2024-03-22T04:19:13;16.50;;;11.27;;
48951;SDS011;34758;42.148;24.744;2024-03-22T04:21:39;14.45;;;10.40;;
48951;SDS011;34758;42.148;24.744;2024-03-22T04:24:08;17.05;;;10.95;;
48951;SDS011;34758;42.148;24.744;2024-03-22T04:26:35;15.35;;;11.25;;
48951;SDS011;34758;42.148;24.744;2024-03-22T04:29:02;17.75;;;13.32;;
48951;SDS011;34758;42.148;24.744;2024-03-22T04:31:28;18.65;;;10.98;;
48951;SDS011;34758;42.148;24.744;2024-03-22T04:33:55;17.33;;;11.77;;
48951;SDS011;34758;42.148;24.744;2024-03-22T04:36:22;18.85;;;11.45;;
48951;SDS011;34758;42.148;24.744;2024-03-22T04:38:49;17.10;;;10.75;;
48951;SDS011;34758;42.148;24.744;2024-03-22T04:41:17;15.05;;;10.63;;
48951;SDS011;34758;42.148;24.744;2024-03-22T04:43:44;17.60;;;11.35;;
48951;SDS011;34758;42.148;24.744;2024-03-22T04:46:11;15.98;;;11.23;;
48951;SDS011;34758;42.148;24.744;2024-03-22T04:48:38;20.48;;;12.70;;
48951;SDS011;34758;42.148;24.744;2024-03-22T04:51:04;18.60;;;11.68;;
48951;SDS011;34758;42.148;24.744;2024-03-22T04:53:33;20.15;;;13.07;;
48951;SDS011;34758;42.148;24.744;2024-03-22T04:55:59;18.45;;;12.20;;
48951;SDS011;34758;42.148;24.744;2024-03-22T04:58:28;18.48;;;12.20;;
48951;SDS011;34758;42.148;24.744;2024-03-22T05:00:56;25.92;;;12.15;;
48951;SDS011;34758;42.148;24.744;2024-03-22T05:03:25;22.02;;;12.40;;
48951;SDS011;34758;42.148;24.744;2024-03-22T05:05:51;17.00;;;11.90;;
48951;SDS011;34758;42.148;24.744;2024-03-22T05:08:19;20.23;;;11.63;;
48951;SDS011;34758;42.148;24.744;2024-03-22T05:10:44;16.02;;;10.90;;
48951;SDS011;34758;42.148;24.744;2024-03-22T05:13:12;16.98;;;9.43;;
48951;SDS011;34758;42.148;24.744;2024-03-22T05:15:39;16.33;;;10.23;;
48951;SDS011;34758;42.148;24.744;2024-03-22T05:18:07;15.93;;;10.43;;
48951;SDS011;34758;42.148;24.744;2024-03-22T05:20:33;18.85;;;10.38;;
48951;SDS011;34758;42.148;24.744;2024-03-22T05:23:01;17.20;;;11.10;;
48951;SDS011;34758;42.148;24.744;2024-03-22T05:25:28;16.10;;;10.38;;
48951;SDS011;34758;42.148;24.744;2024-03-22T05:27:54;18.38;;;11.95;;
48951;SDS011;34758;42.148;24.744;2024-03-22T05:30:21;15.52;;;10.80;;
48951;SDS011;34758;42.148;24.744;2024-03-22T05:32:54;18.38;;;11.00;;
48951;SDS011;34758;42.148;24.744;2024-03-22T05:35:20;18.42;;;10.63;;
48951;SDS011;34758;42.148;24.744;2024-03-22T05:37:47;16.58;;;10.45;;
48951;SDS011;34758;42.148;24.744;2024-03-22T05:40:14;12.68;;;8.93;;
48951;SDS011;34758;42.148;24.744;2024-03-22T05:42:42;14.35;;;8.75;;
48951;SDS011;34758;42.148;24.744;2024-03-22T05:45:08;14.63;;;9.50;;
48951;SDS011;34758;42.148;24.744;2024-03-22T05:47:36;16.33;;;8.95;;
48951;SDS011;34758;42.148;24.744;2024-03-22T05:50:05;11.35;;;7.70;;
48951;SDS011;34758;42.148;24.744;2024-03-22T05:52:33;12.25;;;9.32;;
48951;SDS011;34758;42.148;24.744;2024-03-22T05:54:59;13.95;;;9.30;;
48951;SDS011;34758;42.148;24.744;2024-03-22T05:57:26;15.30;;;10.27;;
48951;SDS011;34758;42.148;24.744;2024-03-22T05:59:52;13.52;;;9.80;;
48951;SDS011;34758;42.148;24.744;2024-03-22T06:02:19;20.08;;;10.23;;
48951;SDS011;34758;42.148;24.744;2024-03-22T06:04:46;16.30;;;10.10;;
48951;SDS011;34758;42.148;24.744;2024-03-22T06:07:15;16.63;;;9.57;;
48951;SDS011;34758;42.148;24.744;2024-03-22T06:09:42;14.80;;;10.00;;
48951;SDS011;34758;42.148;24.744;2024-03-22T06:12:12;18.77;;;10.15;;
48951;SDS011;34758;42.148;24.744;2024-03-22T06:14:39;15.98;;;10.98;;
48951;SDS011;34758;42.148;24.744;2024-03-22T06:17:08;20.98;;;11.05;;
48951;SDS011;34758;42.148;24.744;2024-03-22T06:19:34;19.75;;;10.35;;
48951;SDS011;34758;42.148;24.744;2024-03-22T06:22:01;15.48;;;10.13;;
48951;SDS011;34758;42.148;24.744;2024-03-22T06:24:29;17.38;;;9.52;;
48951;SDS011;34758;42.148;24.744;2024-03-22T06:26:56;14.10;;;9.45;;
48951;SDS011;34758;42.148;24.744;2024-03-22T06:29:24;14.25;;;8.88;;
48951;SDS011;34758;42.148;24.744;2024-03-22T06:31:51;12.25;;;8.57;;
48951;SDS011;34758;42.148;24.744;2024-03-22T06:34:18;15.00;;;9.10;;
48951;SDS011;34758;42.148;24.744;2024-03-22T06:36:46;14.45;;;8.82;;
48951;SDS011;34758;42.148;24.744;2024-03-22T06:39:12;15.65;;;9.77;;
48951;SDS011;34758;42.148;24.744;2024-03-22T06:41:42;16.27;;;8.98;;
48951;SDS011;34758;42.148;24.744;2024-03-22T06:44:08;16.38;;;9.98;;
48951;SDS011;34758;42.148;24.744;2024-03-22T06:46:37;15.45;;;9.05;;
48951;SDS011;34758;42.148;24.744;2024-03-22T06:49:03;14.35;;;9.27;;
48951;SDS011;34758;42.148;24.744;2024-03-22T06:51:30;17.33;;;9.15;;
48951;SDS011;34758;42.148;24.744;2024-03-22T06:53:56;12.90;;;8.60;;
48951;SDS011;34758;42.148;24.744;2024-03-22T06:56:23;11.35;;;8.20;;
48951;SDS011;34758;42.148;24.744;2024-03-22T06:58:51;13.73;;;8.45;;
48951;SDS011;34758;42.148;24.744;2024-03-22T07:01:18;12.80;;;8.18;;
48951;SDS011;34758;42.148;24.744;2024-03-22T07:03:46;10.73;;;8.30;;
48951;SDS011;34758;42.148;24.744;2024-03-22T07:06:14;13.57;;;8.85;;
48951;SDS011;34758;42.148;24.744;2024-03-22T07:08:40;11.65;;;8.43;;
48951;SDS011;34758;42.148;24.744;2024-03-22T07:11:09;18.00;;;8.85;;
48951;SDS011;34758;42.148;24.744;2024-03-22T07:13:36;15.77;;;8.48;;
48951;SDS011;34758;42.148;24.744;2024-03-22T07:16:05;14.00;;;9.05;;
48951;SDS011;34758;42.148;24.744;2024-03-22T07:18:32;13.35;;;9.38;;
48951;SDS011;34758;42.148;24.744;2024-03-22T07:21:00;17.00;;;9.38;;
48951;SDS011;34758;42.148;24.744;2024-03-22T07:23:32;13.93;;;8.70;;
48951;SDS011;34758;42.148;24.744;2024-03-22T07:26:02;12.85;;;8.10;;
48951;SDS011;34758;42.148;24.744;2024-03-22T07:28:29;14.25;;;8.43;;
48951;SDS011;34758;42.148;24.744;2024-03-22T07:30:56;11.82;;;7.97;;
48951;SDS011;34758;42.148;24.744;2024-03-22T07:33:27;12.68;;;7.88;;
48951;SDS011;34758;42.148;24.744;2024-03-22T07:35:56;13.52;;;6.72;;
48951;SDS011;34758;42.148;24.744;2024-03-22T07:38:22;11.45;;;7.38;;
48951;SDS011;34758;42.148;24.744;2024-03-22T07:40:50;15.02;;;8.75;;
48951;SDS011;34758;42.148;24.744;2024-03-22T07:43:16;10.05;;;7.68;;
48951;SDS011;34758;42.148;24.744;2024-03-22T07:45:57;8.73;;;6.77;;
48951;SDS011;34758;42.148;24.744;2024-03-22T07:48:31;11.05;;;7.90;;
48951;SDS011;34758;42.148;24.744;2024-03-22T07:50:58;10.65;;;6.85;;
48951;SDS011;34758;42.148;24.744;2024-03-22T07:53:30;9.60;;;6.90;;
48951;SDS011;34758;42.148;24.744;2024-03-22T07:55:58;10.82;;;7.63;;
48951;SDS011;34758;42.148;24.744;2024-03-22T07:58:29;7.50;;;6.03;;
48951;SDS011;34758;42.148;24.744;2024-03-22T08:00:58;10.85;;;7.18;;
48951;SDS011;34758;42.148;24.744;2024-03-22T08:03:33;12.60;;;6.90;;
48951;SDS011;34758;42.148;24.744;2024-03-22T08:06:00;16.05;;;7.95;;
48951;SDS011;34758;42.148;24.744;2024-03-22T08:08:30;55.90;;;39.42;;
48951;SDS011;34758;42.148;24.744;2024-03-22T08:10:56;19.15;;;13.00;;
48951;SDS011;34758;42.148;24.744;2024-03-22T08:13:23;16.15;;;8.68;;
48951;SDS011;34758;42.148;24.744;2024-03-22T08:15:52;11.07;;;7.30;;
48951;SDS011;34758;42.148;24.744;2024-03-22T08:18:19;14.43;;;8.70;;
48951;SDS011;34758;42.148;24.744;2024-03-22T08:20:47;11.68;;;7.70;;
48951;SDS011;34758;42.148;24.744;2024-03-22T08:23:13;10.80;;;7.80;;
48951;SDS011;34758;42.148;24.744;2024-03-22T08:25:39;9.50;;;7.18;;
48951;SDS011;34758;42.148;24.744;2024-03-22T08:28:11;10.88;;;7.45;;
48951;SDS011;34758;42.148;24.744;2024-03-22T08:30:39;10.45;;;6.78;;
48951;SDS011;34758;42.148;24.744;2024-03-22T08:33:07;11.32;;;6.88;;
48951;SDS011;34758;42.148;24.744;2024-03-22T08:35:36;9.82;;;8.07;;
48951;SDS011;34758;42.148;24.744;2024-03-22T08:38:10;9.75;;;6.65;;
48951;SDS011;34758;42.148;24.744;2024-03-22T08:40:42;9.87;;;7.00;;
48951;SDS011;34758;42.148;24.744;2024-03-22T08:43:11;9.77;;;6.60;;
48951;SDS011;34758;42.148;24.744;2024-03-22T08:45:37;10.23;;;6.63;;
48951;SDS011;34758;42.148;24.744;2024-03-22T08:48:12;11.50;;;6.72;;
48951;SDS011;34758;42.148;24.744;2024-03-22T08:50:41;10.05;;;7.90;;
48951;SDS011;34758;42.148;24.744;2024-03-22T08:53:18;8.65;;;6.13;;
48951;SDS011;34758;42.148;24.744;2024-03-22T08:55:45;11.35;;;6.18;;
48951;SDS011;34758;42.148;24.744;2024-03-22T08:58:13;9.18;;;6.07;;
48951;SDS011;34758;42.148;24.744;2024-03-22T09:00:43;9.18;;;6.18;;
48951;SDS011;34758;42.148;24.744;2024-03-22T09:03:13;6.45;;;4.82;;
48951;SDS011;34758;42.148;24.744;2024-03-22T09:05:40;7.05;;;5.38;;
48951;SDS011;34758;42.148;24.744;2024-03-22T09:08:08;4.93;;;3.75;;
48951;SDS011;34758;42.148;24.744;2024-03-22T09:10:36;5.40;;;3.53;;
48951;SDS011;34758;42.148;24.744;2024-03-22T09:13:06;5.95;;;4.53;;
48951;SDS011;34758;42.148;24.744;2024-03-22T09:15:33;6.50;;;4.53;;
48951;SDS011;34758;42.148;24.744;2024-03-22T09:18:01;10.68;;;5.30;;
48951;SDS011;34758;42.148;24.744;2024-03-22T09:20:27;6.05;;;5.00;;
48951;SDS011;34758;42.148;24.744;2024-03-22T09:22:55;6.35;;;4.25;;
48951;SDS011;34758;42.148;24.744;2024-03-22T09:25:23;7.85;;;3.80;;
48951;SDS011;34758;42.148;24.744;2024-03-22T09:27:55;3.08;;;2.60;;
48951;SDS011;34758;42.148;24.744;2024-03-22T09:30:23;4.43;;;2.60;;
48951;SDS011;34758;42.148;24.744;2024-03-22T09:32:50;2.75;;;2.15;;
48951;SDS011;34758;42.148;24.744;2024-03-22T09:35:17;3.45;;;2.20;;
48951;SDS011;34758;42.148;24.744;2024-03-22T09:37:44;3.75;;;2.83;;
48951;SDS011;34758;42.148;24.744;2024-03-22T09:40:10;3.88;;;2.90;;
48951;SDS011;34758;42.148;24.744;2024-03-22T09:42:38;3.67;;;2.47;;
48951;SDS011;34758;42.148;24.744;2024-03-22T09:45:09;6.00;;;2.88;;
48951;SDS011;34758;42.148;24.744;2024-03-22T09:47:37;3.28;;;2.90;;
48951;SDS011;34758;42.148;24.744;2024-03-22T09:50:04;4.57;;;3.25;;
48951;SDS011;34758;42.148;24.744;2024-03-22T09:52:35;5.07;;;4.60;;
48951;SDS011;34758;42.148;24.744;2024-03-22T09:55:03;5.15;;;4.40;;
48951;SDS011;34758;42.148;24.744;2024-03-22T09:57:32;3.35;;;2.83;;
48951;SDS011;34758;42.148;24.744;2024-03-22T09:59:59;5.45;;;2.72;;
48951;SDS011;34758;42.148;24.744;2024-03-22T10:02:29;2.78;;;2.45;;
48951;SDS011;34758;42.148;24.744;2024-03-22T10:04:56;3.20;;;2.42;;
48951;SDS011;34758;42.148;24.744;2024-03-22T10:07:23;6.07;;;2.45;;
48951;SDS011;34758;42.148;24.744;2024-03-22T10:09:51;3.38;;;2.92;;
48951;SDS011;34758;42.148;24.744;2024-03-22T10:12:18;5.45;;;2.72;;
48951;SDS011;34758;42.148;24.744;2024-03-22T10:14:45;6.00;;;3.00;;
48951;SDS011;34758;42.148;24.744;2024-03-22T10:17:13;4.75;;;3.30;;
48951;SDS011;34758;42.148;24.744;2024-03-22T10:19:40;5.15;;;3.15;;
48951;SDS011;34758;42.148;24.744;2024-03-22T10:22:08;4.97;;;3.30;;
48951;SDS011;34758;42.148;24.744;2024-03-22T10:24:36;5.80;;;3.65;;
48951;SDS011;34758;42.148;24.744;2024-03-22T10:27:02;4.43;;;3.30;;
48951;SDS011;34758;42.148;24.744;2024-03-22T10:29:29;5.93;;;2.72;;
48951;SDS011;34758;42.148;24.744;2024-03-22T10:31:55;4.10;;;2.53;;
48951;SDS011;34758;42.148;24.744;2024-03-22T10:34:24;5.78;;;2.75;;
48951;SDS011;34758;42.148;24.744;2024-03-22T10:36:51;4.43;;;2.75;;
48951;SDS011;34758;42.148;24.744;2024-03-22T10:39:18;4.43;;;3.10;;
48951;SDS011;34758;42.148;24.744;2024-03-22T10:41:44;3.88;;;2.30;;
48951;SDS011;34758;42.148;24.744;2024-03-22T10:44:12;4.82;;;2.33;;
48951;SDS011;34758;42.148;24.744;2024-03-22T10:46:41;2.40;;;2.08;;
48951;SDS011;34758;42.148;24.744;2024-03-22T10:49:11;2.20;;;1.40;;
48951;SDS011;34758;42.148;24.744;2024-03-22T10:51:44;1.45;;;1.35;;
48951;SDS011;34758;42.148;24.744;2024-03-22T10:54:28;2.22;;;1.98;;
48951;SDS011;34758;42.148;24.744;2024-03-22T10:56:57;4.20;;;3.00;;
48951;SDS011;34758;42.148;24.744;2024-03-22T10:59:25;7.20;;;3.83;;
48951;SDS011;34758;42.148;24.744;2024-03-22T11:01:52;4.78;;;3.30;;
48951;SDS011;34758;42.148;24.744;2024-03-22T11:04:19;7.68;;;2.63;;
48951;SDS011;34758;42.148;24.744;2024-03-22T11:06:47;4.20;;;2.35;;
48951;SDS011;34758;42.148;24.744;2024-03-22T11:09:19;3.72;;;2.55;;
48951;SDS011;34758;42.148;24.744;2024-03-22T11:11:48;4.07;;;2.20;;
48951;SDS011;34758;42.148;24.744;2024-03-22T11:14:14;5.25;;;2.60;;
48951;SDS011;34758;42.148;24.744;2024-03-22T11:16:42;6.93;;;4.45;;
48951;SDS011;34758;42.148;24.744;2024-03-22T11:19:10;6.22;;;4.18;;
48951;SDS011;34758;42.148;24.744;2024-03-22T11:21:37;5.43;;;3.83;;
48951;SDS011;34758;42.148;24.744;2024-03-22T11:24:05;4.80;;;3.30;;
48951;SDS011;34758;42.148;24.744;2024-03-22T11:26:38;3.28;;;2.97;;
48951;SDS011;34758;42.148;24.744;2024-03-22T11:29:05;2.95;;;2.67;;
48951;SDS011;34758;42.148;24.744;2024-03-22T11:31:31;15.45;;;13.90;;
48951;SDS011;34758;42.148;24.744;2024-03-22T11:33:59;6.80;;;5.90;;
48951;SDS011;34758;42.148;24.744;2024-03-22T11:36:25;3.85;;;2.53;;
48951;SDS011;34758;42.148;24.744;2024-03-22T11:38:53;3.28;;;1.50;;
48951;SDS011;34758;42.148;24.744;2024-03-22T11:41:20;2.47;;;1.80;;
48951;SDS011;34758;42.148;24.744;2024-03-22T11:43:50;2.72;;;1.50;;
48951;SDS011;34758;42.148;24.744;2024-03-22T11:46:17;3.28;;;1.95;;
48951;SDS011;34758;42.148;24.744;2024-03-22T11:48:45;3.05;;;1.63;;
48951;SDS011;34758;42.148;24.744;2024-03-22T11:51:12;2.97;;;1.70;;
48951;SDS011;34758;42.148;24.744;2024-03-22T11:53:39;2.20;;;1.55;;
48951;SDS011;34758;42.148;24.744;2024-03-22T11:56:05;5.45;;;2.55;;
48951;SDS011;34758;42.148;24.744;2024-03-22T11:58:33;4.40;;;2.90;;
48951;SDS011;34758;42.148;24.744;2024-03-22T12:01:03;2.80;;;2.15;;
48951;SDS011;34758;42.148;24.744;2024-03-22T12:03:29;4.28;;;2.25;;
48951;SDS011;34758;42.148;24.744;2024-03-22T12:05:57;3.22;;;1.85;;
48951;SDS011;34758;42.148;24.744;2024-03-22T12:08:23;4.68;;;2.38;;
48951;SDS011;34758;42.148;24.744;2024-03-22T12:10:50;2.72;;;2.25;;
48951;SDS011;34758;42.148;24.744;2024-03-22T12:13:16;3.35;;;2.20;;
48951;SDS011;34758;42.148;24.744;2024-03-22T12:15:43;3.75;;;2.13;;
48951;SDS011;34758;42.148;24.744;2024-03-22T12:18:10;2.72;;;2.08;;
48951;SDS011;34758;42.148;24.744;2024-03-22T12:20:38;3.30;;;1.95;;
48951;SDS011;34758;42.148;24.744;2024-03-22T12:23:05;2.92;;;2.30;;
48951;SDS011;34758;42.148;24.744;2024-03-22T12:25:33;3.17;;;2.00;;
48951;SDS011;34758;42.148;24.744;2024-03-22T12:28:00;2.95;;;1.73;;
48951;SDS011;34758;42.148;24.744;2024-03-22T12:30:26;2.83;;;1.67;;
48951;SDS011;34758;42.148;24.744;2024-03-22T12:32:54;1.73;;;1.48;;
48951;SDS011;34758;42.148;24.744;2024-03-22T12:35:22;3.85;;;1.85;;
48951;SDS011;34758;42.148;24.744;2024-03-22T12:37:49;3.25;;;1.55;;
48951;SDS011;34758;42.148;24.744;2024-03-22T12:40:15;2.03;;;1.48;;
48951;SDS011;34758;42.148;24.744;2024-03-22T12:42:43;1.58;;;1.25;;
48951;SDS011;34758;42.148;24.744;2024-03-22T12:45:09;1.70;;;1.48;;
48951;SDS011;34758;42.148;24.744;2024-03-22T12:47:36;1.60;;;1.25;;
48951;SDS011;34758;42.148;24.744;2024-03-22T12:50:03;5.18;;;2.03;;
48951;SDS011;34758;42.148;24.744;2024-03-22T12:52:32;4.18;;;1.13;;
48951;SDS011;34758;42.148;24.744;2024-03-22T12:55:01;1.88;;;1.52;;
48951;SDS011;34758;42.148;24.744;2024-03-22T12:57:29;3.15;;;1.65;;
48951;SDS011;34758;42.148;24.744;2024-03-22T12:59:56;4.10;;;2.05;;
48951;SDS011;34758;42.148;24.744;2024-03-22T13:02:23;3.75;;;2.05;;
48951;SDS011;34758;42.148;24.744;2024-03-22T13:04:52;3.47;;;1.80;;
48951;SDS011;34758;42.148;24.744;2024-03-22T13:07:20;2.05;;;1.67;;
48951;SDS011;34758;42.148;24.744;2024-03-22T13:09:49;1.80;;;1.40;;
48951;SDS011;34758;42.148;24.744;2024-03-22T13:12:17;2.75;;;1.45;;
48951;SDS011;34758;42.148;24.744;2024-03-22T13:14:43;3.65;;;1.58;;
48951;SDS011;34758;42.148;24.744;2024-03-22T13:17:11;2.50;;;1.52;;
48951;SDS011;34758;42.148;24.744;2024-03-22T13:19:37;2.22;;;1.33;;
48951;SDS011;34758;42.148;24.744;2024-03-22T13:22:04;2.85;;;1.88;;
48951;SDS011;34758;42.148;24.744;2024-03-22T13:24:30;2.95;;;2.17;;
48951;SDS011;34758;42.148;24.744;2024-03-22T13:26:58;2.63;;;1.25;;
48951;SDS011;34758;42.148;24.744;2024-03-22T13:29:24;3.72;;;1.35;;
48951;SDS011;34758;42.148;24.744;2024-03-22T13:31:51;2.47;;;1.73;;
48951;SDS011;34758;42.148;24.744;2024-03-22T13:34:17;2.92;;;1.50;;
48951;SDS011;34758;42.148;24.744;2024-03-22T13:36:44;2.90;;;1.65;;
48951;SDS011;34758;42.148;24.744;2024-03-22T13:39:10;3.25;;;1.38;;
48951;SDS011;34758;42.148;24.744;2024-03-22T13:41:41;1.98;;;1.20;;
48951;SDS011;34758;42.148;24.744;2024-03-22T13:44:08;2.03;;;1.63;;
48951;SDS011;34758;42.148;24.744;2024-03-22T13:46:35;2.05;;;1.80;;
48951;SDS011;34758;42.148;24.744;2024-03-22T13:49:01;1.80;;;1.25;;
48951;SDS011;34758;42.148;24.744;2024-03-22T13:51:28;2.72;;;1.70;;
48951;SDS011;34758;42.148;24.744;2024-03-22T13:53:56;2.95;;;1.10;;
48951;SDS011;34758;42.148;24.744;2024-03-22T13:56:23;3.05;;;1.27;;
48951;SDS011;34758;42.148;24.744;2024-03-22T13:58:49;1.80;;;1.33;;
48951;SDS011;34758;42.148;24.744;2024-03-22T14:01:18;3.40;;;1.10;;
48951;SDS011;34758;42.148;24.744;2024-03-22T14:03:44;1.75;;;1.50;;
48951;SDS011;34758;42.148;24.744;2024-03-22T14:06:11;2.72;;;1.45;;
48951;SDS011;34758;42.148;24.744;2024-03-22T14:08:38;2.08;;;1.58;;
48951;SDS011;34758;42.148;24.744;2024-03-22T14:11:05;4.00;;;1.80;;
48951;SDS011;34758;42.148;24.744;2024-03-22T14:13:31;2.33;;;1.45;;
48951;SDS011;34758;42.148;24.744;2024-03-22T14:15:59;2.08;;;1.38;;
48951;SDS011;34758;42.148;24.744;2024-03-22T14:18:26;1.98;;;1.60;;
48951;SDS011;34758;42.148;24.744;2024-03-22T14:20:53;1.67;;;1.38;;
48951;SDS011;34758;42.148;24.744;2024-03-22T14:23:20;2.85;;;2.60;;
48951;SDS011;34758;42.148;24.744;2024-03-22T14:25:49;3.25;;;1.60;;